sensor_id;sensor_type;location;lat;lon;timestamp;P1;durP1;ratioP1;P2;durP2;ratioP2
64875;SDS011;51369;49.862;9.908;2023-05-24T00:02:18;12.20;;;4.28;;
64875;SDS011;51369;49.862;9.908;2023-05-24T00:04:44;11.13;;;4.72;;
64875;SDS011;51369;49.862;9.908;2023-05-24T00:07:09;11.55;;;4.43;;
64875;SDS011;51369;49.862;9.908;2023-05-24T00:09:35;14.15;;;4.82;;
64875;SDS011;51369;49.862;9.908;2023-05-24T00:12:00;15.13;;;5.32;;
64875;SDS011;51369;49.862;9.908;2023-05-24T00:14:26;13.73;;;4.80;;
64875;SDS011;51369;49.862;9.908;2023-05-24T00:16:52;11.05;;;4.60;;
64875;SDS011;51369;49.862;9.908;2023-05-24T00:19:17;12.98;;;5.00;;
64875;SDS011;51369;49.862;9.908;2023-05-24T00:21:49;13.10;;;4.50;;
64875;SDS011;51369;49.862;9.908;2023-05-24T00:24:14;14.30;;;5.13;;
64875;SDS011;51369;49.862;9.908;2023-05-24T00:26:41;9.98;;;5.40;;
64875;SDS011;51369;49.862;9.908;2023-05-24T00:29:07;11.38;;;4.45;;
64875;SDS011;51369;49.862;9.908;2023-05-24T00:31:32;11.48;;;5.03;;
64875;SDS011;51369;49.862;9.908;2023-05-24T00:33:58;12.35;;;4.95;;
64875;SDS011;51369;49.862;9.908;2023-05-24T00:36:24;11.32;;;4.95;;
64875;SDS011;51369;49.862;9.908;2023-05-24T00:38:49;10.80;;;4.82;;
64875;SDS011;51369;49.862;9.908;2023-05-24T00:41:16;14.52;;;4.82;;
64875;SDS011;51369;49.862;9.908;2023-05-24T00:43:42;11.23;;;4.20;;
64875;SDS011;51369;49.862;9.908;2023-05-24T00:46:28;11.77;;;4.78;;
64875;SDS011;51369;49.862;9.908;2023-05-24T00:48:58;17.15;;;5.22;;
64875;SDS011;51369;49.862;9.908;2023-05-24T00:51:25;11.32;;;4.93;;
64875;SDS011;51369;49.862;9.908;2023-05-24T00:53:54;12.90;;;5.07;;
64875;SDS011;51369;49.862;9.908;2023-05-24T01:00:07;13.43;;;4.65;;
64875;SDS011;51369;49.862;9.908;2023-05-24T01:02:35;15.38;;;5.93;;
64875;SDS011;51369;49.862;9.908;2023-05-24T01:05:02;11.93;;;4.32;;
64875;SDS011;51369;49.862;9.908;2023-05-24T01:11:03;13.98;;;5.10;;
64875;SDS011;51369;49.862;9.908;2023-05-24T01:16:07;12.63;;;5.40;;
64875;SDS011;51369;49.862;9.908;2023-05-24T01:18:43;13.52;;;4.82;;
64875;SDS011;51369;49.862;9.908;2023-05-24T01:21:29;14.90;;;5.30;;
64875;SDS011;51369;49.862;9.908;2023-05-24T01:24:17;16.20;;;5.47;;
64875;SDS011;51369;49.862;9.908;2023-05-24T01:27:10;15.43;;;5.40;;
64875;SDS011;51369;49.862;9.908;2023-05-24T01:29:37;11.77;;;4.72;;
64875;SDS011;51369;49.862;9.908;2023-05-24T01:32:03;20.35;;;4.95;;
64875;SDS011;51369;49.862;9.908;2023-05-24T01:34:29;9.88;;;4.97;;
64875;SDS011;51369;49.862;9.908;2023-05-24T01:36:54;17.77;;;5.05;;
64875;SDS011;51369;49.862;9.908;2023-05-24T01:39:20;11.35;;;4.68;;
64875;SDS011;51369;49.862;9.908;2023-05-24T01:41:51;13.13;;;5.22;;
64875;SDS011;51369;49.862;9.908;2023-05-24T01:44:36;11.80;;;5.03;;
64875;SDS011;51369;49.862;9.908;2023-05-24T01:47:13;13.80;;;5.22;;
64875;SDS011;51369;49.862;9.908;2023-05-24T01:49:49;10.65;;;4.78;;
64875;SDS011;51369;49.862;9.908;2023-05-24T01:52:22;13.75;;;4.65;;
64875;SDS011;51369;49.862;9.908;2023-05-24T01:54:52;10.88;;;5.30;;
64875;SDS011;51369;49.862;9.908;2023-05-24T01:57:20;13.93;;;5.22;;
64875;SDS011;51369;49.862;9.908;2023-05-24T01:59:47;19.25;;;5.13;;
64875;SDS011;51369;49.862;9.908;2023-05-24T02:02:14;13.82;;;5.47;;
64875;SDS011;51369;49.862;9.908;2023-05-24T02:04:40;10.07;;;4.82;;
64875;SDS011;51369;49.862;9.908;2023-05-24T02:07:05;12.50;;;4.47;;
64875;SDS011;51369;49.862;9.908;2023-05-24T02:09:31;13.32;;;4.45;;
64875;SDS011;51369;49.862;9.908;2023-05-24T02:11:57;16.17;;;5.65;;
64875;SDS011;51369;49.862;9.908;2023-05-24T02:14:22;15.80;;;5.07;;
64875;SDS011;51369;49.862;9.908;2023-05-24T02:16:48;16.05;;;5.25;;
64875;SDS011;51369;49.862;9.908;2023-05-24T02:19:14;15.63;;;4.47;;
64875;SDS011;51369;49.862;9.908;2023-05-24T02:21:42;16.75;;;5.88;;
64875;SDS011;51369;49.862;9.908;2023-05-24T02:24:09;12.82;;;4.78;;
64875;SDS011;51369;49.862;9.908;2023-05-24T02:26:37;14.60;;;5.25;;
64875;SDS011;51369;49.862;9.908;2023-05-24T02:29:03;18.40;;;4.88;;
64875;SDS011;51369;49.862;9.908;2023-05-24T02:31:28;14.88;;;4.63;;
64875;SDS011;51369;49.862;9.908;2023-05-24T02:33:54;16.45;;;4.65;;
64875;SDS011;51369;49.862;9.908;2023-05-24T02:36:20;13.63;;;4.60;;
64875;SDS011;51369;49.862;9.908;2023-05-24T02:38:48;13.63;;;4.65;;
64875;SDS011;51369;49.862;9.908;2023-05-24T02:41:14;14.50;;;4.45;;
64875;SDS011;51369;49.862;9.908;2023-05-24T02:43:42;13.20;;;4.13;;
64875;SDS011;51369;49.862;9.908;2023-05-24T02:46:12;13.68;;;5.47;;
64875;SDS011;51369;49.862;9.908;2023-05-24T02:48:37;18.23;;;5.32;;
64875;SDS011;51369;49.862;9.908;2023-05-24T02:51:03;14.98;;;4.45;;
64875;SDS011;51369;49.862;9.908;2023-05-24T02:53:30;12.85;;;5.47;;
64875;SDS011;51369;49.862;9.908;2023-05-24T02:55:56;13.88;;;4.38;;
64875;SDS011;51369;49.862;9.908;2023-05-24T02:58:22;13.25;;;4.32;;
64875;SDS011;51369;49.862;9.908;2023-05-24T03:00:48;11.48;;;4.43;;
64875;SDS011;51369;49.862;9.908;2023-05-24T03:03:16;11.18;;;3.97;;
64875;SDS011;51369;49.862;9.908;2023-05-24T03:05:42;14.32;;;4.75;;
64875;SDS011;51369;49.862;9.908;2023-05-24T03:08:07;11.85;;;4.65;;
64875;SDS011;51369;49.862;9.908;2023-05-24T03:10:33;15.35;;;4.43;;
64875;SDS011;51369;49.862;9.908;2023-05-24T03:12:59;12.15;;;4.38;;
64875;SDS011;51369;49.862;9.908;2023-05-24T03:15:25;14.43;;;4.90;;
64875;SDS011;51369;49.862;9.908;2023-05-24T03:17:51;17.73;;;4.68;;
64875;SDS011;51369;49.862;9.908;2023-05-24T03:20:16;16.20;;;4.60;;
64875;SDS011;51369;49.862;9.908;2023-05-24T03:22:42;12.50;;;5.00;;
64875;SDS011;51369;49.862;9.908;2023-05-24T03:25:08;15.10;;;5.25;;
64875;SDS011;51369;49.862;9.908;2023-05-24T03:27:37;13.65;;;4.32;;
64875;SDS011;51369;49.862;9.908;2023-05-24T03:30:02;19.48;;;5.97;;
64875;SDS011;51369;49.862;9.908;2023-05-24T03:32:34;12.20;;;4.37;;
64875;SDS011;51369;49.862;9.908;2023-05-24T03:34:59;13.98;;;4.63;;
64875;SDS011;51369;49.862;9.908;2023-05-24T03:37:26;16.77;;;5.05;;
64875;SDS011;51369;49.862;9.908;2023-05-24T03:39:52;17.30;;;5.07;;
64875;SDS011;51369;49.862;9.908;2023-05-24T03:42:29;12.93;;;4.78;;
64875;SDS011;51369;49.862;9.908;2023-05-24T03:44:55;16.52;;;5.47;;
64875;SDS011;51369;49.862;9.908;2023-05-24T03:47:20;15.60;;;4.88;;
64875;SDS011;51369;49.862;9.908;2023-05-24T03:49:46;14.73;;;5.00;;
64875;SDS011;51369;49.862;9.908;2023-05-24T03:52:11;12.25;;;4.40;;
64875;SDS011;51369;49.862;9.908;2023-05-24T03:54:37;17.63;;;5.50;;
64875;SDS011;51369;49.862;9.908;2023-05-24T03:57:03;15.80;;;4.60;;
64875;SDS011;51369;49.862;9.908;2023-05-24T03:59:29;14.25;;;4.65;;
64875;SDS011;51369;49.862;9.908;2023-05-24T04:01:55;12.55;;;5.15;;
64875;SDS011;51369;49.862;9.908;2023-05-24T04:04:21;15.77;;;5.05;;
64875;SDS011;51369;49.862;9.908;2023-05-24T04:06:46;13.38;;;4.93;;
64875;SDS011;51369;49.862;9.908;2023-05-24T04:09:14;14.32;;;4.70;;
64875;SDS011;51369;49.862;9.908;2023-05-24T04:11:39;13.88;;;4.90;;
64875;SDS011;51369;49.862;9.908;2023-05-24T04:14:05;14.68;;;6.30;;
64875;SDS011;51369;49.862;9.908;2023-05-24T04:16:31;14.85;;;5.30;;
64875;SDS011;51369;49.862;9.908;2023-05-24T04:18:58;19.63;;;4.45;;
64875;SDS011;51369;49.862;9.908;2023-05-24T04:21:26;15.68;;;4.40;;
64875;SDS011;51369;49.862;9.908;2023-05-24T04:23:52;9.85;;;4.78;;
64875;SDS011;51369;49.862;9.908;2023-05-24T04:26:18;14.73;;;4.90;;
64875;SDS011;51369;49.862;9.908;2023-05-24T04:28:45;15.00;;;4.55;;
64875;SDS011;51369;49.862;9.908;2023-05-24T04:31:12;12.77;;;5.47;;
64875;SDS011;51369;49.862;9.908;2023-05-24T04:33:39;13.77;;;5.32;;
64875;SDS011;51369;49.862;9.908;2023-05-24T04:36:05;14.98;;;4.70;;
64875;SDS011;51369;49.862;9.908;2023-05-24T04:38:32;18.30;;;4.65;;
64875;SDS011;51369;49.862;9.908;2023-05-24T04:41:00;11.55;;;4.38;;
64875;SDS011;51369;49.862;9.908;2023-05-24T04:43:26;18.70;;;4.25;;
64875;SDS011;51369;49.862;9.908;2023-05-24T04:45:52;15.43;;;4.30;;
64875;SDS011;51369;49.862;9.908;2023-05-24T04:48:19;13.75;;;4.68;;
64875;SDS011;51369;49.862;9.908;2023-05-24T04:50:45;15.60;;;4.40;;
64875;SDS011;51369;49.862;9.908;2023-05-24T04:53:12;13.10;;;4.97;;
64875;SDS011;51369;49.862;9.908;2023-05-24T04:55:38;18.42;;;4.70;;
64875;SDS011;51369;49.862;9.908;2023-05-24T04:58:04;19.92;;;4.72;;
64875;SDS011;51369;49.862;9.908;2023-05-24T05:00:29;18.15;;;5.32;;
64875;SDS011;51369;49.862;9.908;2023-05-24T05:02:54;14.07;;;4.68;;
64875;SDS011;51369;49.862;9.908;2023-05-24T05:05:20;10.70;;;5.28;;
64875;SDS011;51369;49.862;9.908;2023-05-24T05:07:45;10.98;;;4.47;;
64875;SDS011;51369;49.862;9.908;2023-05-24T05:10:11;14.77;;;4.50;;
64875;SDS011;51369;49.862;9.908;2023-05-24T05:12:36;13.25;;;4.50;;
64875;SDS011;51369;49.862;9.908;2023-05-24T05:15:02;13.20;;;5.20;;
64875;SDS011;51369;49.862;9.908;2023-05-24T05:17:28;12.20;;;4.57;;
64875;SDS011;51369;49.862;9.908;2023-05-24T05:19:53;16.73;;;4.53;;
64875;SDS011;51369;49.862;9.908;2023-05-24T05:22:19;13.35;;;4.95;;
64875;SDS011;51369;49.862;9.908;2023-05-24T05:24:45;16.15;;;4.82;;
64875;SDS011;51369;49.862;9.908;2023-05-24T05:27:10;19.55;;;5.53;;
64875;SDS011;51369;49.862;9.908;2023-05-24T05:29:36;13.25;;;4.53;;
64875;SDS011;51369;49.862;9.908;2023-05-24T05:32:01;17.88;;;5.07;;
64875;SDS011;51369;49.862;9.908;2023-05-24T05:34:26;16.73;;;4.28;;
64875;SDS011;51369;49.862;9.908;2023-05-24T05:36:52;15.80;;;5.00;;
64875;SDS011;51369;49.862;9.908;2023-05-24T05:39:17;19.38;;;5.15;;
64875;SDS011;51369;49.862;9.908;2023-05-24T05:41:42;14.63;;;4.80;;
64875;SDS011;51369;49.862;9.908;2023-05-24T05:44:10;16.13;;;5.00;;
64875;SDS011;51369;49.862;9.908;2023-05-24T05:46:37;14.20;;;4.95;;
64875;SDS011;51369;49.862;9.908;2023-05-24T05:49:02;16.05;;;4.35;;
64875;SDS011;51369;49.862;9.908;2023-05-24T05:51:28;16.40;;;5.10;;
64875;SDS011;51369;49.862;9.908;2023-05-24T05:53:54;17.33;;;4.75;;
64875;SDS011;51369;49.862;9.908;2023-05-24T05:56:19;18.83;;;5.03;;
64875;SDS011;51369;49.862;9.908;2023-05-24T05:58:45;16.63;;;5.03;;
64875;SDS011;51369;49.862;9.908;2023-05-24T06:01:10;14.55;;;4.75;;
64875;SDS011;51369;49.862;9.908;2023-05-24T06:03:36;22.92;;;5.40;;
64875;SDS011;51369;49.862;9.908;2023-05-24T06:06:02;18.27;;;5.35;;
64875;SDS011;51369;49.862;9.908;2023-05-24T06:08:28;17.88;;;4.97;;
64875;SDS011;51369;49.862;9.908;2023-05-24T06:10:58;15.20;;;4.63;;
64875;SDS011;51369;49.862;9.908;2023-05-24T06:13:24;12.50;;;5.38;;
64875;SDS011;51369;49.862;9.908;2023-05-24T06:15:52;14.40;;;4.63;;
64875;SDS011;51369;49.862;9.908;2023-05-24T06:18:18;16.48;;;4.82;;
64875;SDS011;51369;49.862;9.908;2023-05-24T06:20:43;15.68;;;4.70;;
64875;SDS011;51369;49.862;9.908;2023-05-24T06:23:08;12.68;;;4.60;;
64875;SDS011;51369;49.862;9.908;2023-05-24T06:25:34;22.52;;;5.03;;
64875;SDS011;51369;49.862;9.908;2023-05-24T06:27:59;17.75;;;4.32;;
64875;SDS011;51369;49.862;9.908;2023-05-24T06:30:25;10.73;;;4.28;;
64875;SDS011;51369;49.862;9.908;2023-05-24T06:32:50;16.85;;;5.45;;
64875;SDS011;51369;49.862;9.908;2023-05-24T06:35:15;15.38;;;4.97;;
64875;SDS011;51369;49.862;9.908;2023-05-24T06:37:41;12.52;;;4.40;;
64875;SDS011;51369;49.862;9.908;2023-05-24T06:40:07;20.30;;;4.88;;
64875;SDS011;51369;49.862;9.908;2023-05-24T06:42:34;16.05;;;4.88;;
64875;SDS011;51369;49.862;9.908;2023-05-24T06:45:00;14.98;;;4.35;;
64875;SDS011;51369;49.862;9.908;2023-05-24T06:47:26;20.60;;;4.70;;
64875;SDS011;51369;49.862;9.908;2023-05-24T06:49:52;11.05;;;4.25;;
64875;SDS011;51369;49.862;9.908;2023-05-24T06:52:17;17.77;;;4.40;;
64875;SDS011;51369;49.862;9.908;2023-05-24T06:54:43;15.25;;;4.80;;
64875;SDS011;51369;49.862;9.908;2023-05-24T06:57:08;17.13;;;4.97;;
64875;SDS011;51369;49.862;9.908;2023-05-24T06:59:34;12.95;;;4.07;;
64875;SDS011;51369;49.862;9.908;2023-05-24T07:01:59;13.88;;;4.22;;
64875;SDS011;51369;49.862;9.908;2023-05-24T07:04:25;10.40;;;4.80;;
64875;SDS011;51369;49.862;9.908;2023-05-24T07:06:51;12.15;;;4.60;;
64875;SDS011;51369;49.862;9.908;2023-05-24T07:09:17;14.85;;;4.95;;
64875;SDS011;51369;49.862;9.908;2023-05-24T07:11:43;16.20;;;4.70;;
64875;SDS011;51369;49.862;9.908;2023-05-24T07:14:08;18.90;;;4.45;;
64875;SDS011;51369;49.862;9.908;2023-05-24T07:16:34;15.00;;;4.68;;
64875;SDS011;51369;49.862;9.908;2023-05-24T07:18:59;21.20;;;4.97;;
64875;SDS011;51369;49.862;9.908;2023-05-24T07:21:25;13.10;;;4.32;;
64875;SDS011;51369;49.862;9.908;2023-05-24T07:23:50;14.65;;;4.00;;
64875;SDS011;51369;49.862;9.908;2023-05-24T07:26:16;14.05;;;4.35;;
64875;SDS011;51369;49.862;9.908;2023-05-24T07:28:42;14.48;;;4.07;;
64875;SDS011;51369;49.862;9.908;2023-05-24T07:31:08;21.10;;;3.92;;
64875;SDS011;51369;49.862;9.908;2023-05-24T07:33:36;10.90;;;3.90;;
64875;SDS011;51369;49.862;9.908;2023-05-24T07:36:05;16.65;;;4.70;;
64875;SDS011;51369;49.862;9.908;2023-05-24T07:38:30;16.40;;;4.15;;
64875;SDS011;51369;49.862;9.908;2023-05-24T07:40:59;15.57;;;4.60;;
64875;SDS011;51369;49.862;9.908;2023-05-24T07:43:27;17.70;;;4.72;;
64875;SDS011;51369;49.862;9.908;2023-05-24T07:45:53;12.38;;;4.55;;
64875;SDS011;51369;49.862;9.908;2023-05-24T07:48:19;12.30;;;3.70;;
64875;SDS011;51369;49.862;9.908;2023-05-24T07:50:47;13.95;;;4.70;;
64875;SDS011;51369;49.862;9.908;2023-05-24T07:53:16;11.02;;;3.78;;
64875;SDS011;51369;49.862;9.908;2023-05-24T07:55:42;13.88;;;3.70;;
64875;SDS011;51369;49.862;9.908;2023-05-24T07:58:09;10.60;;;3.85;;
64875;SDS011;51369;49.862;9.908;2023-05-24T08:00:35;16.30;;;3.25;;
64875;SDS011;51369;49.862;9.908;2023-05-24T08:03:00;15.18;;;3.67;;
64875;SDS011;51369;49.862;9.908;2023-05-24T08:05:25;12.05;;;3.60;;
64875;SDS011;51369;49.862;9.908;2023-05-24T08:07:51;9.25;;;3.53;;
64875;SDS011;51369;49.862;9.908;2023-05-24T08:10:17;13.98;;;4.75;;
64875;SDS011;51369;49.862;9.908;2023-05-24T08:12:43;12.93;;;4.00;;
64875;SDS011;51369;49.862;9.908;2023-05-24T08:15:09;12.35;;;3.80;;
64875;SDS011;51369;49.862;9.908;2023-05-24T08:17:35;17.42;;;3.97;;
64875;SDS011;51369;49.862;9.908;2023-05-24T08:20:02;16.17;;;4.15;;
64875;SDS011;51369;49.862;9.908;2023-05-24T08:22:32;15.05;;;4.40;;
64875;SDS011;51369;49.862;9.908;2023-05-24T08:24:58;10.15;;;3.83;;
64875;SDS011;51369;49.862;9.908;2023-05-24T08:27:23;12.48;;;3.70;;
64875;SDS011;51369;49.862;9.908;2023-05-24T08:29:48;14.95;;;3.80;;
64875;SDS011;51369;49.862;9.908;2023-05-24T08:32:14;14.43;;;3.60;;
64875;SDS011;51369;49.862;9.908;2023-05-24T08:34:39;9.98;;;3.47;;
64875;SDS011;51369;49.862;9.908;2023-05-24T08:37:05;10.43;;;3.70;;
64875;SDS011;51369;49.862;9.908;2023-05-24T08:39:31;10.27;;;3.72;;
64875;SDS011;51369;49.862;9.908;2023-05-24T08:41:57;20.73;;;4.40;;
64875;SDS011;51369;49.862;9.908;2023-05-24T08:44:25;6.00;;;3.20;;
64875;SDS011;51369;49.862;9.908;2023-05-24T08:46:53;13.00;;;3.40;;
64875;SDS011;51369;49.862;9.908;2023-05-24T08:49:20;10.05;;;3.10;;
64875;SDS011;51369;49.862;9.908;2023-05-24T08:51:46;7.97;;;3.33;;
64875;SDS011;51369;49.862;9.908;2023-05-24T08:54:12;11.35;;;3.15;;
64875;SDS011;51369;49.862;9.908;2023-05-24T08:56:38;7.95;;;2.33;;
64875;SDS011;51369;49.862;9.908;2023-05-24T08:59:05;9.35;;;3.03;;
64875;SDS011;51369;49.862;9.908;2023-05-24T09:01:32;15.18;;;3.40;;
64875;SDS011;51369;49.862;9.908;2023-05-24T09:04:00;11.48;;;3.50;;
64875;SDS011;51369;49.862;9.908;2023-05-24T09:06:28;13.32;;;3.38;;
64875;SDS011;51369;49.862;9.908;2023-05-24T09:08:54;9.70;;;3.17;;
64875;SDS011;51369;49.862;9.908;2023-05-24T09:11:21;15.50;;;3.47;;
64875;SDS011;51369;49.862;9.908;2023-05-24T09:13:48;15.25;;;4.10;;
64875;SDS011;51369;49.862;9.908;2023-05-24T09:16:14;18.33;;;3.78;;
64875;SDS011;51369;49.862;9.908;2023-05-24T09:18:40;9.60;;;3.53;;
64875;SDS011;51369;49.862;9.908;2023-05-24T09:21:11;10.48;;;3.35;;
64875;SDS011;51369;49.862;9.908;2023-05-24T09:23:37;7.88;;;3.10;;
64875;SDS011;51369;49.862;9.908;2023-05-24T09:26:08;13.77;;;3.78;;
64875;SDS011;51369;49.862;9.908;2023-05-24T09:28:34;9.68;;;3.03;;
64875;SDS011;51369;49.862;9.908;2023-05-24T09:31:01;11.85;;;3.72;;
64875;SDS011;51369;49.862;9.908;2023-05-24T09:33:27;9.63;;;2.97;;
64875;SDS011;51369;49.862;9.908;2023-05-24T09:35:57;10.73;;;3.72;;
64875;SDS011;51369;49.862;9.908;2023-05-24T09:38:25;5.75;;;3.22;;
64875;SDS011;51369;49.862;9.908;2023-05-24T09:41:01;11.75;;;4.25;;
64875;SDS011;51369;49.862;9.908;2023-05-24T09:43:32;10.82;;;3.50;;
64875;SDS011;51369;49.862;9.908;2023-05-24T09:46:01;10.82;;;3.13;;
64875;SDS011;51369;49.862;9.908;2023-05-24T09:48:27;11.80;;;3.50;;
64875;SDS011;51369;49.862;9.908;2023-05-24T09:51:03;10.70;;;3.25;;
64875;SDS011;51369;49.862;9.908;2023-05-24T09:53:31;8.00;;;3.35;;
64875;SDS011;51369;49.862;9.908;2023-05-24T09:56:04;9.70;;;3.85;;
64875;SDS011;51369;49.862;9.908;2023-05-24T09:58:31;10.32;;;3.08;;
64875;SDS011;51369;49.862;9.908;2023-05-24T10:01:04;11.20;;;4.20;;
64875;SDS011;51369;49.862;9.908;2023-05-24T10:03:31;15.55;;;3.67;;
64875;SDS011;51369;49.862;9.908;2023-05-24T10:05:56;9.38;;;3.38;;
64875;SDS011;51369;49.862;9.908;2023-05-24T10:08:22;9.27;;;3.15;;
64875;SDS011;51369;49.862;9.908;2023-05-24T10:10:48;9.43;;;4.03;;
64875;SDS011;51369;49.862;9.908;2023-05-24T10:13:14;9.65;;;2.83;;
64875;SDS011;51369;49.862;9.908;2023-05-24T10:15:42;11.48;;;3.58;;
64875;SDS011;51369;49.862;9.908;2023-05-24T10:18:09;7.68;;;3.15;;
64875;SDS011;51369;49.862;9.908;2023-05-24T10:20:35;9.23;;;2.75;;
64875;SDS011;51369;49.862;9.908;2023-05-24T10:23:02;10.20;;;3.38;;
64875;SDS011;51369;49.862;9.908;2023-05-24T10:25:33;9.77;;;3.80;;
64875;SDS011;51369;49.862;9.908;2023-05-24T10:28:07;10.15;;;3.30;;
64875;SDS011;51369;49.862;9.908;2023-05-24T10:30:40;14.55;;;3.70;;
64875;SDS011;51369;49.862;9.908;2023-05-24T10:33:12;10.13;;;2.92;;
64875;SDS011;51369;49.862;9.908;2023-05-24T10:35:39;11.63;;;3.25;;
64875;SDS011;51369;49.862;9.908;2023-05-24T10:38:07;10.40;;;3.40;;
64875;SDS011;51369;49.862;9.908;2023-05-24T10:40:33;9.38;;;3.20;;
64875;SDS011;51369;49.862;9.908;2023-05-24T10:43:00;6.90;;;3.63;;
64875;SDS011;51369;49.862;9.908;2023-05-24T10:50:37;9.43;;;3.15;;
64875;SDS011;51369;49.862;9.908;2023-05-24T10:55:54;8.50;;;3.08;;
64875;SDS011;51369;49.862;9.908;2023-05-24T10:58:25;10.32;;;2.70;;
64875;SDS011;51369;49.862;9.908;2023-05-24T11:00:52;11.07;;;3.30;;
64875;SDS011;51369;49.862;9.908;2023-05-24T11:03:17;12.45;;;3.25;;
64875;SDS011;51369;49.862;9.908;2023-05-24T11:08:21;11.88;;;3.72;;
64875;SDS011;51369;49.862;9.908;2023-05-24T11:11:07;12.98;;;2.95;;
64875;SDS011;51369;49.862;9.908;2023-05-24T11:13:37;13.77;;;3.70;;
64875;SDS011;51369;49.862;9.908;2023-05-24T11:16:03;13.07;;;3.60;;
64875;SDS011;51369;49.862;9.908;2023-05-24T11:18:30;11.48;;;3.78;;
64875;SDS011;51369;49.862;9.908;2023-05-24T11:20:58;11.73;;;3.78;;
64875;SDS011;51369;49.862;9.908;2023-05-24T11:23:23;15.23;;;3.92;;
64875;SDS011;51369;49.862;9.908;2023-05-24T11:25:49;9.77;;;3.22;;
64875;SDS011;51369;49.862;9.908;2023-05-24T11:28:14;15.30;;;4.20;;
64875;SDS011;51369;49.862;9.908;2023-05-24T11:30:41;11.10;;;3.30;;
64875;SDS011;51369;49.862;9.908;2023-05-24T11:35:44;10.85;;;3.53;;
64875;SDS011;51369;49.862;9.908;2023-05-24T11:38:10;11.20;;;3.13;;
64875;SDS011;51369;49.862;9.908;2023-05-24T11:40:43;9.02;;;2.85;;
64875;SDS011;51369;49.862;9.908;2023-05-24T11:43:13;8.45;;;2.47;;
64875;SDS011;51369;49.862;9.908;2023-05-24T11:45:41;15.65;;;3.60;;
64875;SDS011;51369;49.862;9.908;2023-05-24T11:48:09;8.75;;;3.28;;
64875;SDS011;51369;49.862;9.908;2023-05-24T11:50:38;10.25;;;2.92;;
64875;SDS011;51369;49.862;9.908;2023-05-24T11:53:05;15.82;;;4.10;;
64875;SDS011;51369;49.862;9.908;2023-05-24T11:55:33;14.10;;;3.10;;
64875;SDS011;51369;49.862;9.908;2023-05-24T11:57:58;9.75;;;3.03;;
64875;SDS011;51369;49.862;9.908;2023-05-24T12:00:26;9.57;;;3.13;;
64875;SDS011;51369;49.862;9.908;2023-05-24T12:02:55;8.30;;;2.83;;
64875;SDS011;51369;49.862;9.908;2023-05-24T12:05:21;8.10;;;2.88;;
64875;SDS011;51369;49.862;9.908;2023-05-24T12:07:47;11.70;;;3.65;;
64875;SDS011;51369;49.862;9.908;2023-05-24T12:10:16;11.32;;;2.90;;
64875;SDS011;51369;49.862;9.908;2023-05-24T12:12:42;9.30;;;2.80;;
64875;SDS011;51369;49.862;9.908;2023-05-24T12:15:09;9.15;;;3.08;;
64875;SDS011;51369;49.862;9.908;2023-05-24T12:17:35;14.68;;;3.85;;
64875;SDS011;51369;49.862;9.908;2023-05-24T12:20:01;7.45;;;2.70;;
64875;SDS011;51369;49.862;9.908;2023-05-24T12:22:28;11.98;;;3.30;;
64875;SDS011;51369;49.862;9.908;2023-05-24T12:24:56;7.05;;;3.05;;
64875;SDS011;51369;49.862;9.908;2023-05-24T12:27:25;9.68;;;2.58;;
64875;SDS011;51369;49.862;9.908;2023-05-24T12:29:51;6.88;;;3.00;;
64875;SDS011;51369;49.862;9.908;2023-05-24T12:32:17;11.95;;;3.20;;
64875;SDS011;51369;49.862;9.908;2023-05-24T12:34:43;6.85;;;3.25;;
64875;SDS011;51369;49.862;9.908;2023-05-24T12:37:09;10.07;;;3.13;;
64875;SDS011;51369;49.862;9.908;2023-05-24T12:39:36;9.88;;;3.10;;
64875;SDS011;51369;49.862;9.908;2023-05-24T12:42:03;8.18;;;2.47;;
64875;SDS011;51369;49.862;9.908;2023-05-24T12:44:29;10.82;;;3.42;;
64875;SDS011;51369;49.862;9.908;2023-05-24T12:46:57;9.95;;;3.03;;
64875;SDS011;51369;49.862;9.908;2023-05-24T12:49:23;7.95;;;2.85;;
64875;SDS011;51369;49.862;9.908;2023-05-24T12:51:50;13.35;;;3.08;;
64875;SDS011;51369;49.862;9.908;2023-05-24T12:54:18;9.55;;;3.50;;
64875;SDS011;51369;49.862;9.908;2023-05-24T12:56:44;10.45;;;3.60;;
64875;SDS011;51369;49.862;9.908;2023-05-24T12:59:09;11.13;;;3.25;;
64875;SDS011;51369;49.862;9.908;2023-05-24T13:01:34;9.38;;;3.42;;
64875;SDS011;51369;49.862;9.908;2023-05-24T13:04:00;11.85;;;3.38;;
64875;SDS011;51369;49.862;9.908;2023-05-24T13:06:26;10.07;;;2.97;;
64875;SDS011;51369;49.862;9.908;2023-05-24T13:08:51;10.07;;;3.63;;
64875;SDS011;51369;49.862;9.908;2023-05-24T13:11:17;11.32;;;3.72;;
64875;SDS011;51369;49.862;9.908;2023-05-24T13:13:43;10.35;;;3.28;;
64875;SDS011;51369;49.862;9.908;2023-05-24T13:16:11;12.80;;;3.20;;
64875;SDS011;51369;49.862;9.908;2023-05-24T13:18:36;15.77;;;3.35;;
64875;SDS011;51369;49.862;9.908;2023-05-24T13:21:02;7.88;;;3.20;;
64875;SDS011;51369;49.862;9.908;2023-05-24T13:23:32;13.27;;;3.45;;
64875;SDS011;51369;49.862;9.908;2023-05-24T13:26:00;11.90;;;3.63;;
64875;SDS011;51369;49.862;9.908;2023-05-24T13:28:26;12.90;;;3.80;;
64875;SDS011;51369;49.862;9.908;2023-05-24T13:30:52;11.15;;;3.40;;
64875;SDS011;51369;49.862;9.908;2023-05-24T13:33:17;8.32;;;3.72;;
64875;SDS011;51369;49.862;9.908;2023-05-24T13:35:43;14.05;;;3.72;;
64875;SDS011;51369;49.862;9.908;2023-05-24T13:38:08;10.23;;;3.15;;
64875;SDS011;51369;49.862;9.908;2023-05-24T13:40:34;8.43;;;2.90;;
64875;SDS011;51369;49.862;9.908;2023-05-24T13:42:59;7.13;;;2.90;;
64875;SDS011;51369;49.862;9.908;2023-05-24T13:45:25;11.13;;;3.40;;
64875;SDS011;51369;49.862;9.908;2023-05-24T13:47:51;12.48;;;3.55;;
64875;SDS011;51369;49.862;9.908;2023-05-24T13:50:17;10.82;;;4.10;;
64875;SDS011;51369;49.862;9.908;2023-05-24T13:52:44;13.68;;;2.97;;
64875;SDS011;51369;49.862;9.908;2023-05-24T13:55:10;10.75;;;3.75;;
64875;SDS011;51369;49.862;9.908;2023-05-24T13:57:35;12.45;;;4.13;;
64875;SDS011;51369;49.862;9.908;2023-05-24T14:00:00;14.57;;;3.55;;
64875;SDS011;51369;49.862;9.908;2023-05-24T14:02:30;9.38;;;2.85;;
64875;SDS011;51369;49.862;9.908;2023-05-24T14:04:56;14.23;;;4.03;;
64875;SDS011;51369;49.862;9.908;2023-05-24T14:07:21;10.95;;;3.75;;
64875;SDS011;51369;49.862;9.908;2023-05-24T14:09:47;16.23;;;3.92;;
64875;SDS011;51369;49.862;9.908;2023-05-24T14:12:12;12.85;;;3.80;;
64875;SDS011;51369;49.862;9.908;2023-05-24T14:14:37;11.02;;;3.28;;
64875;SDS011;51369;49.862;9.908;2023-05-24T14:17:03;9.68;;;3.58;;
64875;SDS011;51369;49.862;9.908;2023-05-24T14:19:28;10.30;;;3.60;;
64875;SDS011;51369;49.862;9.908;2023-05-24T14:21:54;10.52;;;3.65;;
64875;SDS011;51369;49.862;9.908;2023-05-24T14:24:19;7.90;;;3.33;;
64875;SDS011;51369;49.862;9.908;2023-05-24T14:26:45;10.57;;;3.92;;
64875;SDS011;51369;49.862;9.908;2023-05-24T14:29:11;12.73;;;3.60;;
64875;SDS011;51369;49.862;9.908;2023-05-24T14:31:37;10.80;;;3.75;;
64875;SDS011;51369;49.862;9.908;2023-05-24T14:34:06;12.13;;;4.13;;
64875;SDS011;51369;49.862;9.908;2023-05-24T14:36:33;12.90;;;3.47;;
64875;SDS011;51369;49.862;9.908;2023-05-24T14:38:59;12.52;;;4.28;;
64875;SDS011;51369;49.862;9.908;2023-05-24T14:41:24;9.55;;;3.40;;
64875;SDS011;51369;49.862;9.908;2023-05-24T14:43:50;11.65;;;3.45;;
64875;SDS011;51369;49.862;9.908;2023-05-24T14:46:16;8.63;;;3.13;;
64875;SDS011;51369;49.862;9.908;2023-05-24T14:48:41;10.32;;;3.67;;
64875;SDS011;51369;49.862;9.908;2023-05-24T14:51:06;12.45;;;4.10;;
64875;SDS011;51369;49.862;9.908;2023-05-24T14:53:32;14.48;;;3.20;;
64875;SDS011;51369;49.862;9.908;2023-05-24T14:55:57;11.90;;;4.03;;
64875;SDS011;51369;49.862;9.908;2023-05-24T14:58:22;12.32;;;3.85;;